Time,TemperatureF,DewpointF,PressureIn,WindDirection,WindDirectionDegrees,WindSpeedMPH,WindSpeedGustMPH,Humidity,HourlyPrecipIn,Conditions,Clouds,dailyrainin,SoftwareType,DateUTC
2013-04-28 00:02:00,47.0,44.0,30.01,SSW,199,0.0,0.0,88,0.00,,,0.27,,2013-04-28 05:02:00,
2013-04-28 00:12:00,47.0,44.0,30.01,SSW,199,0.0,0.0,88,0.00,,,0.27,,2013-04-28 05:12:00,
2013-04-28 00:22:00,47.0,44.0,30.02,SSW,198,1.0,1.0,88,0.00,,,0.27,,2013-04-28 05:22:00,
2013-04-28 00:32:00,46.0,43.0,30.02,SSW,199,0.0,0.0,88,0.00,,,0.27,,2013-04-28 05:32:00,
2013-04-28 00:42:00,46.0,43.0,30.02,SSW,199,0.0,0.0,88,0.00,,,0.27,,2013-04-28 05:42:00,
2013-04-28 00:52:00,46.0,43.0,30.00,SSW,199,0.0,0.0,89,0.00,,,0.27,,2013-04-28 05:52:00,
2013-04-28 01:01:00,45.0,42.0,30.00,SSW,199,0.0,0.0,88,0.00,,,0.24,,2013-04-28 06:01:00,
2013-04-28 01:12:00,45.0,42.0,30.00,SSW,199,0.0,0.0,88,0.00,,,0.24,,2013-04-28 06:12:00,
2013-04-28 01:21:00,44.0,41.0,30.00,SSW,199,0.0,0.0,88,0.00,,,0.24,,2013-04-28 06:21:00,
2013-04-28 01:32:00,44.0,41.0,30.01,SSW,198,0.0,1.0,89,0.00,,,0.24,,2013-04-28 06:32:00,
2013-04-28 01:42:00,44.0,41.0,30.01,SSW,198,0.0,1.0,89,0.00,,,0.24,,2013-04-28 06:42:00,
2013-04-28 01:52:00,45.0,42.0,30.00,SSW,199,0.0,1.0,90,0.00,,,0.24,,2013-04-28 06:52:00,
2013-04-28 02:01:00,43.0,40.0,29.99,SSW,199,0.0,0.0,88,0.00,,,0.17,,2013-04-28 07:01:00,
2013-04-28 02:11:00,43.0,40.0,29.99,SSW,199,0.0,0.0,88,0.00,,,0.17,,2013-04-28 07:11:00,
2013-04-28 02:21:00,43.0,40.0,29.99,SSW,199,0.0,0.0,89,0.00,,,0.17,,2013-04-28 07:21:00,
2013-04-28 02:31:00,43.0,40.0,30.00,SSW,198,0.0,0.0,90,0.00,,,0.17,,2013-04-28 07:31:00,
2013-04-28 02:42:00,43.0,40.0,30.00,SSW,198,0.0,0.0,90,0.00,,,0.17,,2013-04-28 07:42:00,
2013-04-28 02:52:00,44.0,41.0,29.98,SSW,199,0.0,1.0,90,0.00,,,0.17,,2013-04-28 07:52:00,
2013-04-28 03:02:00,44.0,41.0,30.00,SSW,210,0.0,2.0,90,0.00,,,0.06,,2013-04-28 08:02:00,
2013-04-28 03:11:00,44.0,41.0,30.00,SSW,210,0.0,2.0,90,0.00,,,0.06,,2013-04-28 08:11:00,
2013-04-28 03:21:00,43.0,40.0,29.99,SSW,210,0.0,1.0,90,0.00,,,0.06,,2013-04-28 08:21:00,
2013-04-28 03:32:00,43.0,40.0,29.99,SSW,210,0.0,1.0,90,0.00,,,0.06,,2013-04-28 08:32:00,
2013-04-28 03:42:00,43.0,40.0,29.99,SSW,210,0.0,1.0,90,0.00,,,0.06,,2013-04-28 08:42:00,
2013-04-28 03:52:00,41.0,38.0,29.96,SSW,210,2.0,3.0,89,0.00,,,0.06,,2013-04-28 08:52:00,
2013-04-28 04:01:00,41.0,38.0,29.96,SSW,210,1.0,2.0,90,0.00,,,0.02,,2013-04-28 09:01:00,
2013-04-28 04:11:00,41.0,38.0,29.96,SSW,210,1.0,2.0,90,0.00,,,0.02,,2013-04-28 09:11:00,
2013-04-28 04:21:00,42.0,40.0,29.96,SSW,210,1.0,1.0,91,0.00,,,0.02,,2013-04-28 09:21:00,
2013-04-28 04:33:00,40.0,37.0,29.96,SSW,210,1.0,1.0,90,0.00,,,0.02,,2013-04-28 09:33:00,
2013-04-28 04:42:00,40.0,37.0,29.96,SSW,210,1.0,1.0,90,0.00,,,0.02,,2013-04-28 09:42:00,
2013-04-28 04:53:00,41.0,39.0,29.98,NW,319,2.0,2.0,91,0.00,,,0.02,,2013-04-28 09:53:00,
2013-04-28 05:03:00,41.0,39.0,29.98,NW,319,2.0,2.0,91,0.00,,,0.02,,2013-04-28 10:03:00,
2013-04-28 05:12:00,41.0,39.0,29.98,NW,319,2.0,2.0,91,0.00,,,0.02,,2013-04-28 10:12:00,
2013-04-28 05:22:00,41.0,39.0,29.98,NW,315,0.0,1.0,91,0.00,,,0.00,,2013-04-28 10:22:00,
2013-04-28 05:32:00,41.0,39.0,29.97,NW,315,0.0,0.0,91,0.00,,,0.00,,2013-04-28 10:32:00,
2013-04-28 05:42:00,41.0,39.0,29.97,NW,315,0.0,0.0,91,0.00,,,0.00,,2013-04-28 10:42:00,
2013-04-28 05:52:00,40.0,38.0,29.97,NW,315,1.0,2.0,91,0.00,,,0.00,,2013-04-28 10:52:00,
2013-04-28 06:02:00,40.0,38.0,29.97,NW,316,2.0,2.0,91,0.00,,,0.00,,2013-04-28 11:02:00,
2013-04-28 06:11:00,40.0,38.0,29.97,NW,316,2.0,2.0,91,0.00,,,0.00,,2013-04-28 11:11:00,
2013-04-28 06:22:00,39.0,37.0,29.98,NW,316,0.0,0.0,91,0.00,,,0.00,,2013-04-28 11:22:00,
2013-04-28 06:32:00,39.0,37.0,29.98,NW,315,0.0,0.0,91,0.00,,,0.00,,2013-04-28 11:32:00,
2013-04-28 06:42:00,39.0,37.0,29.98,NW,315,0.0,0.0,91,0.00,,,0.00,,2013-04-28 11:42:00,
2013-04-28 06:52:00,39.0,37.0,29.98,NW,316,0.0,1.0,91,0.00,,,0.00,,2013-04-28 11:52:00,
2013-04-28 07:01:00,39.0,36.0,29.98,NW,315,0.0,0.0,90,0.00,,,0.00,,2013-04-28 12:01:00,
2013-04-28 07:11:00,39.0,36.0,29.98,NW,315,0.0,0.0,90,0.00,,,0.00,,2013-04-28 12:11:00,
2013-04-28 07:21:00,40.0,38.0,29.97,NW,315,0.0,0.0,91,0.00,,,0.00,,2013-04-28 12:21:00,
2013-04-28 07:32:00,41.0,39.0,29.97,NW,316,0.0,0.0,92,0.00,,,0.00,,2013-04-28 12:32:00,
2013-04-28 07:42:00,41.0,39.0,29.97,NW,316,0.0,0.0,92,0.00,,,0.00,,2013-04-28 12:42:00,
2013-04-28 07:52:00,43.0,41.0,29.97,NW,315,1.0,1.0,92,0.00,,,0.00,,2013-04-28 12:52:00,
2013-04-28 08:02:00,46.0,44.0,29.97,WNW,282,2.0,2.0,91,0.00,,,0.00,,2013-04-28 13:02:00,
2013-04-28 08:11:00,46.0,44.0,29.97,WNW,282,2.0,2.0,91,0.00,,,0.00,,2013-04-28 13:11:00,
2013-04-28 08:21:00,49.0,46.0,29.97,WNW,282,1.0,2.0,91,0.00,,,0.00,,2013-04-28 13:21:00,
2013-04-28 08:32:00,51.0,48.0,29.98,West,273,3.0,3.0,88,0.00,,,0.00,,2013-04-28 13:32:00,
2013-04-28 08:42:00,51.0,48.0,29.98,West,273,3.0,3.0,88,0.00,,,0.00,,2013-04-28 13:42:00,
2013-04-28 08:52:00,54.0,50.0,29.98,West,268,1.0,3.0,85,0.00,,,0.00,,2013-04-28 13:52:00,
2013-04-28 09:01:00,57.0,51.0,29.96,WSW,244,0.0,2.0,79,0.00,,,0.00,,2013-04-28 14:01:00,
2013-04-28 09:11:00,57.0,51.0,29.96,WSW,244,0.0,2.0,79,0.00,,,0.00,,2013-04-28 14:11:00,
2013-04-28 09:21:00,59.0,51.0,29.98,SW,222,2.0,3.0,76,0.00,,,0.00,,2013-04-28 14:21:00,
2013-04-28 09:32:00,60.0,51.0,29.98,WSW,243,2.0,7.0,73,0.00,,,0.00,,2013-04-28 14:32:00,
2013-04-28 09:42:00,60.0,51.0,29.98,WSW,243,2.0,7.0,73,0.00,,,0.00,,2013-04-28 14:42:00,
2013-04-28 09:52:00,61.0,52.0,29.95,SSW,198,2.0,4.0,71,0.00,,,0.00,,2013-04-28 14:52:00,
2013-04-28 10:01:00,62.0,52.0,29.98,SW,223,2.0,3.0,69,0.00,,,0.00,,2013-04-28 15:01:00,
2013-04-28 10:12:00,62.0,52.0,29.98,SW,223,2.0,3.0,69,0.00,,,0.00,,2013-04-28 15:12:00,
2013-04-28 10:21:00,62.0,52.0,29.98,WNW,293,2.0,4.0,69,0.00,,,0.00,,2013-04-28 15:21:00,
2013-04-28 10:32:00,63.0,53.0,29.98,West,268,3.0,5.0,69,0.00,,,0.00,,2013-04-28 15:32:00,
2013-04-28 10:42:00,63.0,53.0,29.98,West,268,3.0,5.0,69,0.00,,,0.00,,2013-04-28 15:42:00,
2013-04-28 10:53:00,63.0,53.0,29.97,NW,317,3.0,4.0,69,0.00,,,0.00,,2013-04-28 15:53:00,
2013-04-28 11:03:00,64.0,53.0,29.97,North,357,3.0,3.0,68,0.00,,,0.00,,2013-04-28 16:03:00,
2013-04-28 11:13:00,64.0,53.0,29.97,North,357,3.0,3.0,68,0.00,,,0.00,,2013-04-28 16:13:00,
2013-04-28 11:23:00,65.0,53.0,29.96,WSW,249,4.0,6.0,66,0.00,,,0.00,,2013-04-28 16:23:00,
2013-04-28 11:33:00,66.0,53.0,29.98,SW,219,8.0,8.0,63,0.00,,,0.00,,2013-04-28 16:33:00,
2013-04-28 11:42:00,66.0,53.0,29.98,SW,219,8.0,8.0,63,0.00,,,0.00,,2013-04-28 16:42:00,
2013-04-28 11:52:00,66.0,53.0,29.97,SSW,204,6.0,7.0,63,0.00,,,0.00,,2013-04-28 16:52:00,
2013-04-28 12:02:00,67.0,53.0,29.96,SSW,209,9.0,10.0,60,0.00,,,0.00,,2013-04-28 17:02:00,
2013-04-28 12:12:00,67.0,53.0,29.96,SSW,209,9.0,10.0,60,0.00,,,0.00,,2013-04-28 17:12:00,
2013-04-28 12:22:00,68.0,54.0,29.95,SSW,210,3.0,5.0,61,0.00,,,0.00,,2013-04-28 17:22:00,
2013-04-28 12:32:00,68.0,53.0,29.94,South,190,8.0,8.0,58,0.00,,,0.00,,2013-04-28 17:32:00,
2013-04-28 12:42:00,68.0,53.0,29.94,South,190,8.0,8.0,58,0.00,,,0.00,,2013-04-28 17:42:00,
2013-04-28 12:52:00,69.0,52.0,29.93,SSW,204,5.0,10.0,55,0.00,,,0.00,,2013-04-28 17:52:00,
2013-04-28 13:02:00,69.0,51.0,29.94,SSW,205,5.0,11.0,53,0.00,,,0.00,,2013-04-28 18:02:00,
2013-04-28 13:12:00,69.0,51.0,29.94,SSW,205,5.0,11.0,53,0.00,,,0.00,,2013-04-28 18:12:00,
2013-04-28 13:22:00,70.0,52.0,29.93,South,189,4.0,11.0,52,0.00,,,0.00,,2013-04-28 18:22:00,
2013-04-28 13:32:00,71.0,52.0,29.93,WSW,237,3.0,10.0,52,0.00,,,0.00,,2013-04-28 18:32:00,
2013-04-28 13:42:00,71.0,52.0,29.93,WSW,237,3.0,10.0,52,0.00,,,0.00,,2013-04-28 18:42:00,
2013-04-28 13:52:00,71.0,52.0,29.91,South,186,6.0,10.0,51,0.00,,,0.00,,2013-04-28 18:52:00,
2013-04-28 14:02:00,71.0,51.0,29.91,SSW,206,6.0,10.0,50,0.00,,,0.00,,2013-04-28 19:02:00,
2013-04-28 14:11:00,71.0,51.0,29.91,SSW,206,6.0,10.0,50,0.00,,,0.00,,2013-04-28 19:11:00,
2013-04-28 14:21:00,71.0,51.0,29.91,South,184,5.0,8.0,50,0.00,,,0.00,,2013-04-28 19:21:00,
2013-04-28 14:31:00,72.0,53.0,29.91,South,185,5.0,9.0,51,0.00,,,0.00,,2013-04-28 19:31:00,
2013-04-28 14:41:00,72.0,53.0,29.91,South,185,5.0,9.0,51,0.00,,,0.00,,2013-04-28 19:41:00,
2013-04-28 14:52:00,73.0,53.0,29.90,South,187,8.0,11.0,49,0.00,,,0.00,,2013-04-28 19:52:00,
2013-04-28 15:02:00,73.0,50.0,29.90,South,185,7.0,12.0,45,0.00,,,0.00,,2013-04-28 20:02:00,
2013-04-28 15:11:00,73.0,50.0,29.90,South,185,7.0,12.0,45,0.00,,,0.00,,2013-04-28 20:11:00,
2013-04-28 15:22:00,73.0,50.0,29.88,South,172,8.0,12.0,44,0.00,,,0.00,,2013-04-28 20:22:00,
2013-04-28 15:32:00,73.0,50.0,29.88,South,186,11.0,11.0,45,0.00,,,0.00,,2013-04-28 20:32:00,
2013-04-28 15:42:00,73.0,50.0,29.88,South,186,11.0,11.0,45,0.00,,,0.00,,2013-04-28 20:42:00,
2013-04-28 15:52:00,73.0,50.0,29.86,SSW,192,5.0,10.0,44,0.00,,,0.00,,2013-04-28 20:52:00,
2013-04-28 16:01:00,73.0,52.0,29.86,South,187,7.0,7.0,47,0.00,,,0.00,,2013-04-28 21:01:00,
2013-04-28 16:11:00,73.0,52.0,29.86,South,187,7.0,7.0,47,0.00,,,0.00,,2013-04-28 21:11:00,
2013-04-28 16:22:00,73.0,51.0,29.85,SSW,193,6.0,7.0,46,0.00,,,0.00,,2013-04-28 21:22:00,
2013-04-28 16:32:00,73.0,50.0,29.85,SW,223,12.0,15.0,44,0.00,,,0.00,,2013-04-28 21:32:00,
2013-04-28 16:42:00,73.0,50.0,29.85,SW,223,12.0,15.0,44,0.00,,,0.00,,2013-04-28 21:42:00,
2013-04-28 16:53:00,73.0,50.0,29.82,WSW,238,5.0,9.0,45,0.00,,,0.00,,2013-04-28 21:53:00,
2013-04-28 17:03:00,73.0,50.0,29.82,South,185,10.0,11.0,44,0.00,,,0.00,,2013-04-28 22:03:00,
2013-04-28 17:12:00,73.0,50.0,29.82,South,185,10.0,11.0,44,0.00,,,0.00,,2013-04-28 22:12:00,
2013-04-28 17:22:00,73.0,47.0,29.83,South,187,11.0,12.0,40,0.00,,,0.00,,2013-04-28 22:22:00,
2013-04-28 17:33:00,73.0,48.0,29.81,South,180,9.0,13.0,41,0.00,,,0.00,,2013-04-28 22:33:00,
2013-04-28 17:42:00,73.0,48.0,29.81,South,180,9.0,13.0,41,0.00,,,0.00,,2013-04-28 22:42:00,
2013-04-28 17:52:00,73.0,49.0,29.81,SSW,212,4.0,8.0,42,0.00,,,0.00,,2013-04-28 22:52:00,
2013-04-28 18:02:00,73.0,48.0,29.83,SSW,200,3.0,6.0,41,0.00,,,0.00,,2013-04-28 23:02:00,
2013-04-28 18:12:00,73.0,48.0,29.83,SSW,200,3.0,6.0,41,0.00,,,0.00,,2013-04-28 23:12:00,
2013-04-28 18:22:00,73.0,48.0,29.81,South,190,6.0,10.0,41,0.00,,,0.00,,2013-04-28 23:22:00,
2013-04-28 18:32:00,72.0,48.0,29.81,South,183,9.0,10.0,43,0.00,,,0.00,,2013-04-28 23:32:00,
2013-04-28 18:42:00,72.0,48.0,29.81,South,183,9.0,10.0,43,0.00,,,0.00,,2013-04-28 23:42:00,
2013-04-28 18:52:00,72.0,49.0,29.80,SSW,201,6.0,9.0,44,0.00,,,0.00,,2013-04-28 23:52:00,
2013-04-28 19:01:00,72.0,49.0,29.80,South,179,6.0,6.0,44,0.00,,,0.00,,2013-04-29 00:01:00,
2013-04-28 19:11:00,72.0,49.0,29.80,South,179,6.0,6.0,44,0.00,,,0.00,,2013-04-29 00:11:00,
2013-04-28 19:22:00,72.0,49.0,29.81,South,184,7.0,7.0,45,0.00,,,0.00,,2013-04-29 00:22:00,
2013-04-28 19:32:00,72.0,49.0,29.80,SSW,200,7.0,8.0,45,0.00,,,0.00,,2013-04-29 00:32:00,
2013-04-28 19:41:00,72.0,49.0,29.80,SSW,200,7.0,8.0,45,0.00,,,0.00,,2013-04-29 00:41:00,
2013-04-28 19:52:00,71.0,51.0,29.80,South,185,4.0,5.0,49,0.00,,,0.00,,2013-04-29 00:52:00,
2013-04-28 20:01:00,70.0,50.0,29.80,South,183,5.0,5.0,49,0.00,,,0.00,,2013-04-29 01:01:00,
2013-04-28 20:12:00,68.0,50.0,29.80,South,179,4.0,5.0,52,0.00,,,0.00,,2013-04-29 01:12:00,
2013-04-28 20:21:00,68.0,50.0,29.80,South,179,4.0,5.0,52,0.00,,,0.00,,2013-04-29 01:21:00,
2013-04-28 20:32:00,67.0,50.0,29.81,SSE,160,4.0,5.0,54,0.00,,,0.00,,2013-04-29 01:32:00,
2013-04-28 20:42:00,67.0,50.0,29.81,SSE,160,4.0,5.0,54,0.00,,,0.00,,2013-04-29 01:42:00,
2013-04-28 20:52:00,66.0,51.0,29.80,SSE,160,3.0,4.0,58,0.00,,,0.00,,2013-04-29 01:52:00,
2013-04-28 21:01:00,65.0,52.0,29.81,SSE,150,6.0,6.0,62,0.00,,,0.00,,2013-04-29 02:01:00,
2013-04-28 21:11:00,65.0,52.0,29.81,SSE,150,6.0,6.0,62,0.00,,,0.00,,2013-04-29 02:11:00,
2013-04-28 21:21:00,65.0,52.0,29.81,SSE,156,4.0,5.0,63,0.00,,,0.00,,2013-04-29 02:21:00,
2013-04-28 21:32:00,64.0,52.0,29.83,SSE,159,7.0,7.0,65,0.00,,,0.00,,2013-04-29 02:32:00,
2013-04-28 21:41:00,64.0,52.0,29.83,SSE,159,7.0,7.0,65,0.00,,,0.00,,2013-04-29 02:41:00,
2013-04-28 21:52:00,64.0,53.0,29.83,SSE,153,4.0,7.0,67,0.00,,,0.00,,2013-04-29 02:52:00,
2013-04-28 22:01:00,63.0,52.0,29.82,SE,142,5.0,5.0,68,0.00,,,0.00,,2013-04-29 03:01:00,
2013-04-28 22:12:00,63.0,52.0,29.82,SE,142,5.0,5.0,68,0.00,,,0.00,,2013-04-29 03:12:00,
2013-04-28 22:21:00,62.0,52.0,29.83,SE,135,5.0,6.0,69,0.00,,,0.00,,2013-04-29 03:21:00,
2013-04-28 22:33:00,62.0,52.0,29.83,SE,143,7.0,9.0,70,0.00,,,0.00,,2013-04-29 03:33:00,
2013-04-28 22:42:00,62.0,52.0,29.83,SE,143,7.0,9.0,70,0.00,,,0.00,,2013-04-29 03:42:00,
2013-04-28 22:53:00,61.0,51.0,29.81,SSE,150,5.0,6.0,70,0.00,,,0.00,,2013-04-29 03:53:00,
2013-04-28 23:03:00,61.0,52.0,29.82,SSE,155,4.0,6.0,72,0.00,,,0.00,,2013-04-29 04:03:00,
2013-04-28 23:13:00,61.0,52.0,29.82,SSE,155,4.0,6.0,72,0.00,,,0.00,,2013-04-29 04:13:00,
2013-04-28 23:23:00,61.0,52.0,29.82,SSE,147,4.0,5.0,72,0.00,,,0.00,,2013-04-29 04:23:00,
2013-04-28 23:33:00,60.0,51.0,29.82,SSE,151,2.0,6.0,73,0.00,,,0.00,,2013-04-29 04:33:00,
2013-04-28 23:43:00,60.0,51.0,29.82,SSE,151,2.0,6.0,73,0.00,,,0.00,,2013-04-29 04:43:00,
2013-04-28 23:52:00,60.0,51.0,29.82,SSE,149,2.0,7.0,73,0.00,,,0.00,,2013-04-29 04:52:00,